sensor_id;sensor_type;location;lat;lon;timestamp;P1;durP1;ratioP1;P2;durP2;ratioP2
38182;SDS011;23991;52.430;10.586;2022-12-29T00:02:04;4.10;;;1.90;;
38182;SDS011;23991;52.430;10.586;2022-12-29T00:04:29;5.85;;;2.10;;
38182;SDS011;23991;52.430;10.586;2022-12-29T00:06:55;3.47;;;1.70;;
38182;SDS011;23991;52.430;10.586;2022-12-29T00:09:21;3.67;;;2.00;;
38182;SDS011;23991;52.430;10.586;2022-12-29T00:11:47;3.08;;;1.77;;
38182;SDS011;23991;52.430;10.586;2022-12-29T00:14:12;4.70;;;2.00;;
38182;SDS011;23991;52.430;10.586;2022-12-29T00:16:57;2.55;;;1.80;;
38182;SDS011;23991;52.430;10.586;2022-12-29T00:19:23;3.80;;;1.95;;
38182;SDS011;23991;52.430;10.586;2022-12-29T00:22:09;6.88;;;2.00;;
38182;SDS011;23991;52.430;10.586;2022-12-29T00:24:55;3.47;;;1.50;;
38182;SDS011;23991;52.430;10.586;2022-12-29T00:27:27;2.83;;;1.90;;
38182;SDS011;23991;52.430;10.586;2022-12-29T00:30:13;3.20;;;1.80;;
38182;SDS011;23991;52.430;10.586;2022-12-29T00:33:09;4.72;;;1.95;;
38182;SDS011;23991;52.430;10.586;2022-12-29T00:35:59;3.13;;;1.90;;
38182;SDS011;23991;52.430;10.586;2022-12-29T00:38:32;3.83;;;1.70;;
38182;SDS011;23991;52.430;10.586;2022-12-29T00:41:19;2.53;;;1.80;;
38182;SDS011;23991;52.430;10.586;2022-12-29T00:44:03;3.72;;;2.10;;
38182;SDS011;23991;52.430;10.586;2022-12-29T00:46:29;3.40;;;1.70;;
38182;SDS011;23991;52.430;10.586;2022-12-29T00:48:56;3.45;;;1.75;;
38182;SDS011;23991;52.430;10.586;2022-12-29T00:51:40;3.42;;;1.83;;
38182;SDS011;23991;52.430;10.586;2022-12-29T00:54:07;2.92;;;1.73;;
38182;SDS011;23991;52.430;10.586;2022-12-29T00:56:33;4.47;;;1.90;;
38182;SDS011;23991;52.430;10.586;2022-12-29T00:59:05;5.40;;;1.88;;
38182;SDS011;23991;52.430;10.586;2022-12-29T01:01:32;3.85;;;1.92;;
38182;SDS011;23991;52.430;10.586;2022-12-29T01:03:58;2.72;;;1.73;;
38182;SDS011;23991;52.430;10.586;2022-12-29T01:06:24;3.40;;;2.22;;
38182;SDS011;23991;52.430;10.586;2022-12-29T01:08:50;5.15;;;2.58;;
38182;SDS011;23991;52.430;10.586;2022-12-29T01:11:36;4.72;;;1.90;;
38182;SDS011;23991;52.430;10.586;2022-12-29T01:14:05;3.28;;;1.80;;
38182;SDS011;23991;52.430;10.586;2022-12-29T01:16:31;3.90;;;1.80;;
38182;SDS011;23991;52.430;10.586;2022-12-29T01:18:57;2.60;;;1.60;;
38182;SDS011;23991;52.430;10.586;2022-12-29T01:21:22;3.42;;;1.80;;
38182;SDS011;23991;52.430;10.586;2022-12-29T01:23:48;4.78;;;1.95;;
38182;SDS011;23991;52.430;10.586;2022-12-29T01:26:15;3.47;;;1.70;;
38182;SDS011;23991;52.430;10.586;2022-12-29T01:28:42;4.72;;;1.92;;
38182;SDS011;23991;52.430;10.586;2022-12-29T01:31:08;3.17;;;2.22;;
38182;SDS011;23991;52.430;10.586;2022-12-29T01:33:34;3.03;;;1.60;;
38182;SDS011;23991;52.430;10.586;2022-12-29T01:36:03;2.67;;;1.60;;
38182;SDS011;23991;52.430;10.586;2022-12-29T01:38:30;2.75;;;1.52;;
38182;SDS011;23991;52.430;10.586;2022-12-29T01:40:56;5.22;;;1.80;;
38182;SDS011;23991;52.430;10.586;2022-12-29T01:43:37;3.65;;;2.15;;
38182;SDS011;23991;52.430;10.586;2022-12-29T01:46:03;3.05;;;2.05;;
38182;SDS011;23991;52.430;10.586;2022-12-29T01:48:29;3.25;;;1.92;;
38182;SDS011;23991;52.430;10.586;2022-12-29T01:50:54;3.90;;;1.88;;
38182;SDS011;23991;52.430;10.586;2022-12-29T01:53:27;2.47;;;1.60;;
38182;SDS011;23991;52.430;10.586;2022-12-29T01:55:59;4.30;;;1.88;;
38182;SDS011;23991;52.430;10.586;2022-12-29T01:58:31;4.32;;;1.90;;
38182;SDS011;23991;52.430;10.586;2022-12-29T02:01:00;1.90;;;1.30;;
38182;SDS011;23991;52.430;10.586;2022-12-29T02:03:27;2.95;;;1.60;;
38182;SDS011;23991;52.430;10.586;2022-12-29T02:06:02;3.30;;;2.03;;
38182;SDS011;23991;52.430;10.586;2022-12-29T02:08:29;2.35;;;1.50;;
38182;SDS011;23991;52.430;10.586;2022-12-29T02:10:55;3.00;;;1.60;;
38182;SDS011;23991;52.430;10.586;2022-12-29T02:13:23;5.75;;;2.65;;
38182;SDS011;23991;52.430;10.586;2022-12-29T02:19:00;3.03;;;1.50;;
38182;SDS011;23991;52.430;10.586;2022-12-29T02:29:50;2.95;;;1.67;;
38182;SDS011;23991;52.430;10.586;2022-12-29T02:32:30;4.75;;;1.88;;
38182;SDS011;23991;52.430;10.586;2022-12-29T02:41:04;4.68;;;2.00;;
38182;SDS011;23991;52.430;10.586;2022-12-29T02:43:50;3.25;;;1.90;;
38182;SDS011;23991;52.430;10.586;2022-12-29T02:46:19;5.57;;;1.88;;
38182;SDS011;23991;52.430;10.586;2022-12-29T02:49:17;2.90;;;1.73;;
38182;SDS011;23991;52.430;10.586;2022-12-29T02:51:51;3.40;;;1.98;;
38182;SDS011;23991;52.430;10.586;2022-12-29T02:54:22;2.90;;;1.73;;
38182;SDS011;23991;52.430;10.586;2022-12-29T02:59:48;4.05;;;1.92;;
38182;SDS011;23991;52.430;10.586;2022-12-29T03:05:42;3.42;;;1.80;;
38182;SDS011;23991;52.430;10.586;2022-12-29T03:11:29;3.70;;;1.80;;
38182;SDS011;23991;52.430;10.586;2022-12-29T03:14:32;3.97;;;2.00;;
38182;SDS011;23991;52.430;10.586;2022-12-29T03:17:24;3.88;;;1.98;;
38182;SDS011;23991;52.430;10.586;2022-12-29T03:19:57;3.80;;;2.10;;
38182;SDS011;23991;52.430;10.586;2022-12-29T03:22:29;2.78;;;1.80;;
38182;SDS011;23991;52.430;10.586;2022-12-29T03:25:03;2.47;;;1.58;;
38182;SDS011;23991;52.430;10.586;2022-12-29T03:27:48;3.92;;;1.90;;
38182;SDS011;23991;52.430;10.586;2022-12-29T03:30:22;3.17;;;1.75;;
38182;SDS011;23991;52.430;10.586;2022-12-29T03:32:50;4.95;;;1.90;;
38182;SDS011;23991;52.430;10.586;2022-12-29T03:35:20;3.65;;;1.80;;
38182;SDS011;23991;52.430;10.586;2022-12-29T03:38:09;6.60;;;2.40;;
38182;SDS011;23991;52.430;10.586;2022-12-29T03:40:39;5.25;;;1.92;;
38182;SDS011;23991;52.430;10.586;2022-12-29T03:43:08;3.63;;;1.60;;
38182;SDS011;23991;52.430;10.586;2022-12-29T03:45:34;3.63;;;1.67;;
38182;SDS011;23991;52.430;10.586;2022-12-29T03:48:00;3.00;;;1.70;;
38182;SDS011;23991;52.430;10.586;2022-12-29T03:50:26;2.72;;;1.77;;
38182;SDS011;23991;52.430;10.586;2022-12-29T03:52:51;3.83;;;1.70;;
38182;SDS011;23991;52.430;10.586;2022-12-29T03:55:17;4.50;;;1.52;;
38182;SDS011;23991;52.430;10.586;2022-12-29T03:57:42;3.28;;;1.90;;
38182;SDS011;23991;52.430;10.586;2022-12-29T04:00:08;2.50;;;1.60;;
38182;SDS011;23991;52.430;10.586;2022-12-29T04:02:34;4.13;;;2.03;;
38182;SDS011;23991;52.430;10.586;2022-12-29T04:05:00;3.90;;;1.88;;
38182;SDS011;23991;52.430;10.586;2022-12-29T04:07:25;4.55;;;1.70;;
38182;SDS011;23991;52.430;10.586;2022-12-29T04:09:51;3.42;;;1.63;;
38182;SDS011;23991;52.430;10.586;2022-12-29T04:12:16;3.95;;;2.00;;
38182;SDS011;23991;52.430;10.586;2022-12-29T04:14:42;4.13;;;1.60;;
38182;SDS011;23991;52.430;10.586;2022-12-29T04:17:07;3.55;;;1.48;;
38182;SDS011;23991;52.430;10.586;2022-12-29T04:19:33;2.67;;;1.70;;
38182;SDS011;23991;52.430;10.586;2022-12-29T04:21:58;3.70;;;1.50;;
38182;SDS011;23991;52.430;10.586;2022-12-29T04:24:24;3.47;;;1.63;;
38182;SDS011;23991;52.430;10.586;2022-12-29T04:26:49;3.25;;;1.70;;
38182;SDS011;23991;52.430;10.586;2022-12-29T04:29:15;4.18;;;2.08;;
38182;SDS011;23991;52.430;10.586;2022-12-29T04:31:40;3.10;;;1.80;;
38182;SDS011;23991;52.430;10.586;2022-12-29T04:34:06;4.25;;;1.80;;
38182;SDS011;23991;52.430;10.586;2022-12-29T04:36:32;3.17;;;1.60;;
38182;SDS011;23991;52.430;10.586;2022-12-29T04:38:57;2.85;;;1.73;;
38182;SDS011;23991;52.430;10.586;2022-12-29T04:41:23;2.90;;;1.80;;
38182;SDS011;23991;52.430;10.586;2022-12-29T04:43:49;2.83;;;1.80;;
38182;SDS011;23991;52.430;10.586;2022-12-29T04:46:14;3.72;;;1.73;;
38182;SDS011;23991;52.430;10.586;2022-12-29T04:48:40;5.50;;;1.73;;
38182;SDS011;23991;52.430;10.586;2022-12-29T04:51:05;3.72;;;1.83;;
38182;SDS011;23991;52.430;10.586;2022-12-29T04:53:31;2.95;;;1.70;;
38182;SDS011;23991;52.430;10.586;2022-12-29T04:55:56;2.42;;;1.40;;
38182;SDS011;23991;52.430;10.586;2022-12-29T04:58:22;4.25;;;1.88;;
38182;SDS011;23991;52.430;10.586;2022-12-29T05:00:47;2.78;;;1.77;;
38182;SDS011;23991;52.430;10.586;2022-12-29T05:03:13;2.45;;;1.42;;
38182;SDS011;23991;52.430;10.586;2022-12-29T05:05:38;4.60;;;1.60;;
38182;SDS011;23991;52.430;10.586;2022-12-29T05:08:04;2.53;;;1.40;;
38182;SDS011;23991;52.430;10.586;2022-12-29T05:10:30;2.35;;;1.30;;
38182;SDS011;23991;52.430;10.586;2022-12-29T05:12:55;2.97;;;1.50;;
38182;SDS011;23991;52.430;10.586;2022-12-29T05:15:22;4.13;;;1.40;;
38182;SDS011;23991;52.430;10.586;2022-12-29T05:17:48;3.60;;;1.27;;
38182;SDS011;23991;52.430;10.586;2022-12-29T05:20:13;3.58;;;1.40;;
38182;SDS011;23991;52.430;10.586;2022-12-29T05:22:39;2.30;;;1.40;;
38182;SDS011;23991;52.430;10.586;2022-12-29T05:25:04;2.10;;;1.38;;
38182;SDS011;23991;52.430;10.586;2022-12-29T05:27:30;3.30;;;1.50;;
38182;SDS011;23991;52.430;10.586;2022-12-29T05:29:56;2.33;;;1.50;;
38182;SDS011;23991;52.430;10.586;2022-12-29T05:32:21;2.67;;;1.45;;
38182;SDS011;23991;52.430;10.586;2022-12-29T05:34:47;3.58;;;1.42;;
38182;SDS011;23991;52.430;10.586;2022-12-29T05:37:15;3.78;;;1.60;;
38182;SDS011;23991;52.430;10.586;2022-12-29T05:39:40;3.78;;;1.42;;
38182;SDS011;23991;52.430;10.586;2022-12-29T05:42:06;2.35;;;1.27;;
38182;SDS011;23991;52.430;10.586;2022-12-29T05:44:31;2.30;;;1.30;;
38182;SDS011;23991;52.430;10.586;2022-12-29T05:46:57;3.53;;;1.40;;
38182;SDS011;23991;52.430;10.586;2022-12-29T05:49:23;1.98;;;1.20;;
38182;SDS011;23991;52.430;10.586;2022-12-29T05:51:48;2.47;;;1.15;;
38182;SDS011;23991;52.430;10.586;2022-12-29T05:54:14;2.13;;;1.27;;
38182;SDS011;23991;52.430;10.586;2022-12-29T05:56:39;2.28;;;1.30;;
38182;SDS011;23991;52.430;10.586;2022-12-29T05:59:05;1.73;;;1.20;;
38182;SDS011;23991;52.430;10.586;2022-12-29T06:01:30;2.60;;;1.10;;
38182;SDS011;23991;52.430;10.586;2022-12-29T06:03:56;2.28;;;1.30;;
38182;SDS011;23991;52.430;10.586;2022-12-29T06:06:21;1.42;;;1.00;;
38182;SDS011;23991;52.430;10.586;2022-12-29T06:08:47;5.60;;;1.20;;
38182;SDS011;23991;52.430;10.586;2022-12-29T06:11:13;2.00;;;1.27;;
38182;SDS011;23991;52.430;10.586;2022-12-29T06:13:39;2.20;;;1.23;;
38182;SDS011;23991;52.430;10.586;2022-12-29T06:16:04;6.50;;;1.10;;
38182;SDS011;23991;52.430;10.586;2022-12-29T06:18:30;3.83;;;1.33;;
38182;SDS011;23991;52.430;10.586;2022-12-29T06:21:02;2.83;;;1.10;;
38182;SDS011;23991;52.430;10.586;2022-12-29T06:23:29;4.93;;;1.52;;
38182;SDS011;23991;52.430;10.586;2022-12-29T06:25:54;1.90;;;1.08;;
38182;SDS011;23991;52.430;10.586;2022-12-29T06:28:20;3.20;;;1.20;;
38182;SDS011;23991;52.430;10.586;2022-12-29T06:30:46;2.28;;;1.27;;
38182;SDS011;23991;52.430;10.586;2022-12-29T06:33:12;2.67;;;1.27;;
38182;SDS011;23991;52.430;10.586;2022-12-29T06:35:38;2.28;;;1.10;;
38182;SDS011;23991;52.430;10.586;2022-12-29T06:38:04;2.75;;;1.27;;
38182;SDS011;23991;52.430;10.586;2022-12-29T06:40:30;2.67;;;1.20;;
38182;SDS011;23991;52.430;10.586;2022-12-29T06:42:56;2.20;;;1.10;;
38182;SDS011;23991;52.430;10.586;2022-12-29T06:45:21;1.45;;;1.00;;
38182;SDS011;23991;52.430;10.586;2022-12-29T06:47:47;1.80;;;1.20;;
38182;SDS011;23991;52.430;10.586;2022-12-29T06:50:12;1.50;;;1.10;;
38182;SDS011;23991;52.430;10.586;2022-12-29T06:52:38;6.50;;;1.30;;
38182;SDS011;23991;52.430;10.586;2022-12-29T06:55:04;1.38;;;1.00;;
38182;SDS011;23991;52.430;10.586;2022-12-29T06:57:29;1.65;;;0.95;;
38182;SDS011;23991;52.430;10.586;2022-12-29T06:59:55;3.10;;;1.20;;
38182;SDS011;23991;52.430;10.586;2022-12-29T07:02:21;1.35;;;0.95;;
38182;SDS011;23991;52.430;10.586;2022-12-29T07:04:47;2.05;;;1.20;;
38182;SDS011;23991;52.430;10.586;2022-12-29T07:07:12;2.08;;;1.00;;
38182;SDS011;23991;52.430;10.586;2022-12-29T07:09:38;1.50;;;1.10;;
38182;SDS011;23991;52.430;10.586;2022-12-29T07:12:04;1.92;;;0.85;;
38182;SDS011;23991;52.430;10.586;2022-12-29T07:14:30;2.92;;;1.08;;
38182;SDS011;23991;52.430;10.586;2022-12-29T07:16:56;2.00;;;1.25;;
38182;SDS011;23991;52.430;10.586;2022-12-29T07:19:21;2.88;;;0.80;;
38182;SDS011;23991;52.430;10.586;2022-12-29T07:21:47;0.85;;;0.77;;
38182;SDS011;23991;52.430;10.586;2022-12-29T07:24:13;1.75;;;1.25;;
38182;SDS011;23991;52.430;10.586;2022-12-29T07:26:38;3.00;;;1.00;;
38182;SDS011;23991;52.430;10.586;2022-12-29T07:29:04;2.05;;;0.93;;
38182;SDS011;23991;52.430;10.586;2022-12-29T07:31:30;2.08;;;0.80;;
38182;SDS011;23991;52.430;10.586;2022-12-29T07:33:55;1.05;;;0.70;;
38182;SDS011;23991;52.430;10.586;2022-12-29T07:36:21;1.73;;;1.00;;
38182;SDS011;23991;52.430;10.586;2022-12-29T07:38:47;1.15;;;0.88;;
38182;SDS011;23991;52.430;10.586;2022-12-29T07:41:12;0.80;;;0.80;;
38182;SDS011;23991;52.430;10.586;2022-12-29T07:43:38;1.92;;;0.85;;
38182;SDS011;23991;52.430;10.586;2022-12-29T07:46:04;1.15;;;0.82;;
38182;SDS011;23991;52.430;10.586;2022-12-29T07:48:29;1.05;;;0.85;;
38182;SDS011;23991;52.430;10.586;2022-12-29T07:50:55;1.25;;;1.00;;
38182;SDS011;23991;52.430;10.586;2022-12-29T07:53:21;1.10;;;0.90;;
38182;SDS011;23991;52.430;10.586;2022-12-29T07:55:46;1.00;;;0.80;;
38182;SDS011;23991;52.430;10.586;2022-12-29T07:58:12;1.75;;;1.10;;
38182;SDS011;23991;52.430;10.586;2022-12-29T08:00:38;1.10;;;0.93;;
38182;SDS011;23991;52.430;10.586;2022-12-29T08:03:04;1.73;;;0.80;;
38182;SDS011;23991;52.430;10.586;2022-12-29T08:05:30;1.45;;;0.98;;
38182;SDS011;23991;52.430;10.586;2022-12-29T08:07:57;1.50;;;1.15;;
38182;SDS011;23991;52.430;10.586;2022-12-29T08:10:22;1.73;;;0.93;;
38182;SDS011;23991;52.430;10.586;2022-12-29T08:12:48;1.35;;;0.90;;
38182;SDS011;23991;52.430;10.586;2022-12-29T08:15:14;1.75;;;1.08;;
38182;SDS011;23991;52.430;10.586;2022-12-29T08:17:40;2.47;;;0.90;;
38182;SDS011;23991;52.430;10.586;2022-12-29T08:20:05;3.90;;;0.93;;
38182;SDS011;23991;52.430;10.586;2022-12-29T08:22:31;0.90;;;0.80;;
38182;SDS011;23991;52.430;10.586;2022-12-29T08:24:57;0.80;;;0.80;;
38182;SDS011;23991;52.430;10.586;2022-12-29T08:27:22;0.77;;;0.60;;
38182;SDS011;23991;52.430;10.586;2022-12-29T08:29:48;0.65;;;0.40;;
38182;SDS011;23991;52.430;10.586;2022-12-29T08:32:14;0.85;;;0.63;;
38182;SDS011;23991;52.430;10.586;2022-12-29T08:34:40;1.13;;;0.68;;
38182;SDS011;23991;52.430;10.586;2022-12-29T08:37:05;1.17;;;0.57;;
38182;SDS011;23991;52.430;10.586;2022-12-29T08:39:31;2.63;;;0.88;;
38182;SDS011;23991;52.430;10.586;2022-12-29T08:41:57;1.95;;;0.88;;
38182;SDS011;23991;52.430;10.586;2022-12-29T08:44:22;1.40;;;1.00;;
38182;SDS011;23991;52.430;10.586;2022-12-29T08:46:48;2.80;;;1.30;;
38182;SDS011;23991;52.430;10.586;2022-12-29T08:49:13;1.67;;;1.10;;
38182;SDS011;23991;52.430;10.586;2022-12-29T08:51:39;1.73;;;0.90;;
38182;SDS011;23991;52.430;10.586;2022-12-29T08:54:05;3.83;;;1.00;;
38182;SDS011;23991;52.430;10.586;2022-12-29T08:56:30;1.67;;;0.88;;
38182;SDS011;23991;52.430;10.586;2022-12-29T08:58:56;0.93;;;0.73;;
38182;SDS011;23991;52.430;10.586;2022-12-29T09:01:22;2.47;;;1.00;;
38182;SDS011;23991;52.430;10.586;2022-12-29T09:03:47;2.05;;;1.00;;
38182;SDS011;23991;52.430;10.586;2022-12-29T09:06:14;2.40;;;0.98;;
38182;SDS011;23991;52.430;10.586;2022-12-29T09:08:41;1.10;;;0.90;;
38182;SDS011;23991;52.430;10.586;2022-12-29T09:11:07;2.80;;;1.00;;
38182;SDS011;23991;52.430;10.586;2022-12-29T09:13:44;1.33;;;0.80;;
38182;SDS011;23991;52.430;10.586;2022-12-29T09:16:09;2.28;;;0.80;;
38182;SDS011;23991;52.430;10.586;2022-12-29T09:18:35;3.47;;;1.00;;
38182;SDS011;23991;52.430;10.586;2022-12-29T09:21:02;2.30;;;1.20;;
38182;SDS011;23991;52.430;10.586;2022-12-29T09:23:29;1.55;;;0.80;;
38182;SDS011;23991;52.430;10.586;2022-12-29T09:25:55;2.35;;;1.10;;
38182;SDS011;23991;52.430;10.586;2022-12-29T09:28:21;3.15;;;0.90;;
38182;SDS011;23991;52.430;10.586;2022-12-29T09:30:48;3.42;;;0.93;;
38182;SDS011;23991;52.430;10.586;2022-12-29T09:33:13;1.88;;;1.00;;
38182;SDS011;23991;52.430;10.586;2022-12-29T09:35:43;2.38;;;0.90;;
38182;SDS011;23991;52.430;10.586;2022-12-29T09:38:10;2.42;;;0.82;;
38182;SDS011;23991;52.430;10.586;2022-12-29T09:40:36;2.08;;;1.02;;
38182;SDS011;23991;52.430;10.586;2022-12-29T09:45:43;1.83;;;0.90;;
38182;SDS011;23991;52.430;10.586;2022-12-29T09:48:23;1.80;;;1.13;;
38182;SDS011;23991;52.430;10.586;2022-12-29T09:51:03;0.73;;;0.50;;
38182;SDS011;23991;52.430;10.586;2022-12-29T09:53:39;1.15;;;0.70;;
38182;SDS011;23991;52.430;10.586;2022-12-29T09:56:17;2.95;;;0.90;;
38182;SDS011;23991;52.430;10.586;2022-12-29T09:58:54;1.73;;;0.82;;
38182;SDS011;23991;52.430;10.586;2022-12-29T10:04:03;2.60;;;0.80;;
38182;SDS011;23991;52.430;10.586;2022-12-29T10:06:37;1.25;;;0.80;;
38182;SDS011;23991;52.430;10.586;2022-12-29T10:17:40;4.50;;;1.42;;
38182;SDS011;23991;52.430;10.586;2022-12-29T10:20:31;2.95;;;1.65;;
38182;SDS011;23991;52.430;10.586;2022-12-29T10:25:52;1.35;;;0.80;;
38182;SDS011;23991;52.430;10.586;2022-12-29T10:28:37;1.75;;;1.00;;
38182;SDS011;23991;52.430;10.586;2022-12-29T10:31:25;1.05;;;0.90;;
38182;SDS011;23991;52.430;10.586;2022-12-29T10:33:59;1.35;;;0.85;;
38182;SDS011;23991;52.430;10.586;2022-12-29T10:36:35;1.55;;;1.00;;
38182;SDS011;23991;52.430;10.586;2022-12-29T10:39:21;1.10;;;0.98;;
38182;SDS011;23991;52.430;10.586;2022-12-29T10:42:39;2.13;;;1.17;;
38182;SDS011;23991;52.430;10.586;2022-12-29T10:44:51;5.25;;;1.58;;
38182;SDS011;23991;52.430;10.586;2022-12-29T10:47:18;1.80;;;1.00;;
38182;SDS011;23991;52.430;10.586;2022-12-29T10:49:47;2.35;;;0.90;;
38182;SDS011;23991;52.430;10.586;2022-12-29T10:52:14;1.25;;;0.90;;
38182;SDS011;23991;52.430;10.586;2022-12-29T10:54:46;2.75;;;1.10;;
38182;SDS011;23991;52.430;10.586;2022-12-29T10:59:56;1.92;;;0.85;;
38182;SDS011;23991;52.430;10.586;2022-12-29T11:05:10;4.60;;;1.85;;
38182;SDS011;23991;52.430;10.586;2022-12-29T11:07:37;2.30;;;1.50;;
38182;SDS011;23991;52.430;10.586;2022-12-29T11:13:17;3.72;;;1.45;;
38182;SDS011;23991;52.430;10.586;2022-12-29T11:15:49;1.10;;;0.80;;
38182;SDS011;23991;52.430;10.586;2022-12-29T11:18:26;2.38;;;1.10;;
38182;SDS011;23991;52.430;10.586;2022-12-29T11:20:57;1.27;;;0.85;;
38182;SDS011;23991;52.430;10.586;2022-12-29T11:31:44;3.75;;;1.55;;
38182;SDS011;23991;52.430;10.586;2022-12-29T11:34:22;2.05;;;1.15;;
38182;SDS011;23991;52.430;10.586;2022-12-29T11:36:58;1.48;;;0.90;;
38182;SDS011;23991;52.430;10.586;2022-12-29T11:39:29;1.48;;;0.90;;
38182;SDS011;23991;52.430;10.586;2022-12-29T11:41:58;2.38;;;1.10;;
38182;SDS011;23991;52.430;10.586;2022-12-29T11:44:24;2.42;;;1.27;;
38182;SDS011;23991;52.430;10.586;2022-12-29T11:46:51;1.45;;;0.90;;
38182;SDS011;23991;52.430;10.586;2022-12-29T11:49:22;4.22;;;1.17;;
38182;SDS011;23991;52.430;10.586;2022-12-29T11:51:50;2.13;;;0.95;;
38182;SDS011;23991;52.430;10.586;2022-12-29T11:54:23;1.65;;;0.90;;
38182;SDS011;23991;52.430;10.586;2022-12-29T11:56:52;5.63;;;1.30;;
38182;SDS011;23991;52.430;10.586;2022-12-29T12:02:03;2.30;;;1.10;;
38182;SDS011;23991;52.430;10.586;2022-12-29T12:04:48;2.65;;;0.88;;
38182;SDS011;23991;52.430;10.586;2022-12-29T12:07:20;4.23;;;1.33;;
38182;SDS011;23991;52.430;10.586;2022-12-29T12:09:53;4.47;;;1.25;;
38182;SDS011;23991;52.430;10.586;2022-12-29T12:12:44;2.92;;;0.90;;
38182;SDS011;23991;52.430;10.586;2022-12-29T12:15:31;2.58;;;0.95;;
38182;SDS011;23991;52.430;10.586;2022-12-29T12:21:04;5.57;;;1.10;;
38182;SDS011;23991;52.430;10.586;2022-12-29T12:34:24;1.35;;;0.85;;
38182;SDS011;23991;52.430;10.586;2022-12-29T12:45:27;2.88;;;1.10;;
38182;SDS011;23991;52.430;10.586;2022-12-29T12:53:42;4.07;;;1.45;;
38182;SDS011;23991;52.430;10.586;2022-12-29T12:56:26;2.92;;;1.50;;
38182;SDS011;23991;52.430;10.586;2022-12-29T12:58:59;6.32;;;1.30;;
38182;SDS011;23991;52.430;10.586;2022-12-29T13:01:38;2.25;;;0.82;;
38182;SDS011;23991;52.430;10.586;2022-12-29T13:07:24;2.90;;;1.20;;
38182;SDS011;23991;52.430;10.586;2022-12-29T13:18:11;2.72;;;1.20;;
38182;SDS011;23991;52.430;10.586;2022-12-29T13:20:52;3.65;;;1.20;;
38182;SDS011;23991;52.430;10.586;2022-12-29T13:23:37;5.75;;;2.05;;
38182;SDS011;23991;52.430;10.586;2022-12-29T13:26:21;3.38;;;1.35;;
38182;SDS011;23991;52.430;10.586;2022-12-29T13:29:03;4.25;;;1.52;;
38182;SDS011;23991;52.430;10.586;2022-12-29T13:31:56;3.25;;;1.48;;
38182;SDS011;23991;52.430;10.586;2022-12-29T13:38:12;3.15;;;1.30;;
38182;SDS011;23991;52.430;10.586;2022-12-29T13:40:47;6.97;;;2.08;;
38182;SDS011;23991;52.430;10.586;2022-12-29T13:43:20;3.35;;;1.40;;
38182;SDS011;23991;52.430;10.586;2022-12-29T13:45:55;3.92;;;1.30;;
38182;SDS011;23991;52.430;10.586;2022-12-29T13:48:56;6.60;;;1.52;;
38182;SDS011;23991;52.430;10.586;2022-12-29T13:51:24;2.08;;;1.10;;
38182;SDS011;23991;52.430;10.586;2022-12-29T13:54:25;4.63;;;1.30;;
38182;SDS011;23991;52.430;10.586;2022-12-29T13:56:51;2.70;;;1.15;;
38182;SDS011;23991;52.430;10.586;2022-12-29T13:59:36;3.03;;;1.60;;
38182;SDS011;23991;52.430;10.586;2022-12-29T14:07:48;5.03;;;1.52;;
38182;SDS011;23991;52.430;10.586;2022-12-29T14:12:50;2.78;;;1.20;;
38182;SDS011;23991;52.430;10.586;2022-12-29T14:15:22;4.40;;;1.33;;
38182;SDS011;23991;52.430;10.586;2022-12-29T14:18:00;6.50;;;1.60;;
38182;SDS011;23991;52.430;10.586;2022-12-29T14:28:24;3.88;;;1.67;;
38182;SDS011;23991;52.430;10.586;2022-12-29T14:30:55;3.50;;;1.08;;
38182;SDS011;23991;52.430;10.586;2022-12-29T14:33:22;6.00;;;1.38;;
38182;SDS011;23991;52.430;10.586;2022-12-29T14:35:51;3.20;;;1.17;;
38182;SDS011;23991;52.430;10.586;2022-12-29T14:38:19;4.50;;;1.60;;
38182;SDS011;23991;52.430;10.586;2022-12-29T14:43:52;4.25;;;1.73;;
38182;SDS011;23991;52.430;10.586;2022-12-29T14:46:20;6.20;;;1.55;;
38182;SDS011;23991;52.430;10.586;2022-12-29T14:48:46;3.47;;;1.58;;
38182;SDS011;23991;52.430;10.586;2022-12-29T14:51:19;4.18;;;1.67;;
38182;SDS011;23991;52.430;10.586;2022-12-29T14:53:54;3.75;;;1.38;;
38182;SDS011;23991;52.430;10.586;2022-12-29T14:56:23;3.17;;;1.55;;
38182;SDS011;23991;52.430;10.586;2022-12-29T14:58:55;5.30;;;1.58;;
38182;SDS011;23991;52.430;10.586;2022-12-29T15:01:43;4.07;;;1.73;;
38182;SDS011;23991;52.430;10.586;2022-12-29T15:04:18;4.25;;;1.40;;
38182;SDS011;23991;52.430;10.586;2022-12-29T15:06:47;8.10;;;2.08;;
38182;SDS011;23991;52.430;10.586;2022-12-29T15:14:56;5.43;;;1.65;;
38182;SDS011;23991;52.430;10.586;2022-12-29T15:17:27;2.40;;;1.33;;
38182;SDS011;23991;52.430;10.586;2022-12-29T15:20:40;4.65;;;1.95;;
38182;SDS011;23991;52.430;10.586;2022-12-29T15:22:48;6.07;;;1.83;;
38182;SDS011;23991;52.430;10.586;2022-12-29T15:25:27;7.00;;;2.20;;
38182;SDS011;23991;52.430;10.586;2022-12-29T15:27:54;6.47;;;1.52;;
38182;SDS011;23991;52.430;10.586;2022-12-29T15:30:25;6.03;;;1.60;;
38182;SDS011;23991;52.430;10.586;2022-12-29T15:32:50;5.40;;;1.60;;
38182;SDS011;23991;52.430;10.586;2022-12-29T15:37:52;5.43;;;1.67;;
38182;SDS011;23991;52.430;10.586;2022-12-29T15:40:21;7.35;;;1.98;;
38182;SDS011;23991;52.430;10.586;2022-12-29T15:43:14;4.70;;;1.52;;
38182;SDS011;23991;52.430;10.586;2022-12-29T15:45:48;7.18;;;1.80;;
38182;SDS011;23991;52.430;10.586;2022-12-29T15:48:19;3.58;;;1.60;;
38182;SDS011;23991;52.430;10.586;2022-12-29T15:50:47;4.10;;;1.42;;
38182;SDS011;23991;52.430;10.586;2022-12-29T15:53:32;6.65;;;2.00;;
38182;SDS011;23991;52.430;10.586;2022-12-29T15:55:59;7.32;;;1.65;;
38182;SDS011;23991;52.430;10.586;2022-12-29T15:58:30;5.57;;;1.50;;
38182;SDS011;23991;52.430;10.586;2022-12-29T16:01:03;4.45;;;1.35;;
38182;SDS011;23991;52.430;10.586;2022-12-29T16:03:31;5.00;;;1.52;;
38182;SDS011;23991;52.430;10.586;2022-12-29T16:09:05;5.93;;;1.67;;
38182;SDS011;23991;52.430;10.586;2022-12-29T16:11:46;11.95;;;2.05;;
38182;SDS011;23991;52.430;10.586;2022-12-29T16:14:16;6.60;;;1.77;;
38182;SDS011;23991;52.430;10.586;2022-12-29T16:16:49;6.60;;;1.90;;
38182;SDS011;23991;52.430;10.586;2022-12-29T16:19:18;7.25;;;1.83;;
38182;SDS011;23991;52.430;10.586;2022-12-29T16:21:49;4.25;;;1.73;;
38182;SDS011;23991;52.430;10.586;2022-12-29T16:24:16;8.82;;;2.95;;
38182;SDS011;23991;52.430;10.586;2022-12-29T16:26:48;7.27;;;2.53;;
38182;SDS011;23991;52.430;10.586;2022-12-29T16:29:19;7.78;;;3.60;;
38182;SDS011;23991;52.430;10.586;2022-12-29T16:31:50;8.38;;;2.33;;
38182;SDS011;23991;52.430;10.586;2022-12-29T16:34:23;6.60;;;1.50;;
38182;SDS011;23991;52.430;10.586;2022-12-29T16:36:54;5.47;;;1.75;;
38182;SDS011;23991;52.430;10.586;2022-12-29T16:39:29;4.53;;;2.22;;
38182;SDS011;23991;52.430;10.586;2022-12-29T16:42:00;6.80;;;2.47;;
38182;SDS011;23991;52.430;10.586;2022-12-29T16:44:27;8.32;;;3.63;;
38182;SDS011;23991;52.430;10.586;2022-12-29T16:49:35;8.45;;;2.22;;
38182;SDS011;23991;52.430;10.586;2022-12-29T16:52:13;4.85;;;1.67;;
38182;SDS011;23991;52.430;10.586;2022-12-29T16:54:50;4.55;;;1.63;;
38182;SDS011;23991;52.430;10.586;2022-12-29T16:57:22;4.28;;;1.58;;
38182;SDS011;23991;52.430;10.586;2022-12-29T16:59:50;7.03;;;1.95;;
38182;SDS011;23991;52.430;10.586;2022-12-29T17:02:19;5.25;;;1.65;;
38182;SDS011;23991;52.430;10.586;2022-12-29T17:04:46;6.93;;;1.95;;
38182;SDS011;23991;52.430;10.586;2022-12-29T17:07:18;3.28;;;1.73;;
38182;SDS011;23991;52.430;10.586;2022-12-29T17:09:45;4.60;;;1.65;;
38182;SDS011;23991;52.430;10.586;2022-12-29T17:12:13;6.78;;;1.67;;